Bookmark and Share
Track history (hours):
 

Cosco Aden

Last reported at 2014-Apr-23 06:33 UTC. Time now 2014-Apr-23 06:54 UTC.
Position N 37°53' E 122°08'.

Length 261 m; draft 10.1 m.

Type: Ship (hazmat cat A). MMSI: 477765900.

NotesDate/timePositionNaut miles runAvg speedWind from/ knotsBaromVisibWave heightAir tempDewpointWater temp
2014-Apr-23 06:33N 37°53' E 122°08'129 3.3
2014-Apr-21 15:13N 38°46' E 119°38'7011.7
2014-Apr-21 09:14N 38°31' E 121°05'1115.4
2014-Apr-21 08:33N 38°26' E 121°17'1514.9
2014-Apr-21 07:33N 38°17' E 121°33'1514.4
2014-Apr-21 06:31N 38°09' E 121°48'1414.1
2014-Apr-21 05:32N 38°01' E 122°03'1414.0
2014-Apr-21 04:33N 37°53' E 122°17'1414.4
2014-Apr-21 03:33N 37°45' E 122°32'1514.7
2014-Apr-21 02:30N 37°35' E 122°46'1515.6
2014-Apr-21 01:33N 37°21' E 122°53'  
2014-Apr-18 03:13N 29°43' E 122°54'911.5
2014-Apr-18 02:27N 29°35' E 122°50'3410.8
2014-Apr-17 23:18N 29°04' E 122°34'38512.0
2014-Apr-16 15:09N 23°52' E 118°23'1215.1
2014-Apr-16 14:19N 23°45' E 118°12'1215.8
2014-Apr-16 13:33N 23°37' E 118°02'1615.7
2014-Apr-16 12:31N 23°26' E 117°49'1615.8
2014-Apr-16 11:28N 23°11' E 117°41'1414.7
2014-Apr-16 10:30N 22°58' E 117°35'1713.7
2014-Apr-16 09:14N 22°42' E 117°29'5 4.5
2014-Apr-16 08:10N 22°38' E 117°25'711.4
2014-Apr-16 07:33N 22°31' E 117°22'2319.0
2014-Apr-16 06:21N 22°11' E 117°11'  

Dump ship's entire track history

sailing weather and tide predictions

Cosco Aden — VRKF9 — position and weather